»·PEaware :: N1127P KBUR-KLAS

N1127P :: KBUR-KLAS

FLIGHT INFORMATION

Flight Status: Arrived
Operator: Privately registered:
United States
More flights under this callsign
Pilot: Marcelo S. (23897)
Aircraft: CESSNA 525A CITATION CJ2
(C25A)
More flights by this aircraft type
Origin: KBUR Bob Hope-Burbank
United States
Destination: KLAS McCarran Intl
United States
More flights between these airports :: More routes between these airports
Route: SLAPP1 MISEN MISEN KEPEC6
File this flight plan on PilotEdge
Remarks: I-5 RATING
Altitude:
(Current/Filed)
23,000ft
Speed:
(Current/Filed)
280kts
Departed: 02-Apr-19 03:48 PM
Arrived: 02-Apr-19 04:46 PM
Distance/Time
Traveled:
193nm/0:57
Distance/Time
To Go:
Arrived

Flight Plot

Page will automatically refresh every two minutes.

Flight plan parsing failed; only flown route is shown


Map Options




Map Legend


Flown Route
Filed Route
Departure Airport
Arrival Airport
Navaid (VOR, NDB)
Fix

Horizontal Profiles

Position Reports

Time Latitude Longitude Heading Altitude Ground
Speed
02-Apr-19 15:30 34.202180 -118.360523 254 782ft 0kts
02-Apr-19 15:31 34.202180 -118.360523 254 782ft 0kts
02-Apr-19 15:32 34.202180 -118.360523 254 782ft 0kts
02-Apr-19 15:33 34.202180 -118.360523 254 782ft 0kts
02-Apr-19 15:34 34.202180 -118.360524 254 782ft 0kts
02-Apr-19 15:35 34.202179 -118.360526 254 782ft 0kts
02-Apr-19 15:36 34.202179 -118.360528 254 782ft 0kts
02-Apr-19 15:37 34.202178 -118.360530 254 782ft 0kts
02-Apr-19 15:38 34.202178 -118.360532 254 782ft 0kts
02-Apr-19 15:39 34.202177 -118.360534 254 782ft 0kts
02-Apr-19 15:40 34.202177 -118.360536 254 782ft 0kts
02-Apr-19 15:41 34.200246 -118.359886 205 782ft 0kts
02-Apr-19 15:42 34.200239 -118.359890 204 782ft 1kts
02-Apr-19 15:43 34.202852 -118.358967 356 782ft 29kts
02-Apr-19 15:44 34.211820 -118.361243 37 782ft 2kts
02-Apr-19 15:45 34.211824 -118.361239 39 782ft 0kts
02-Apr-19 15:46 34.211823 -118.361240 39 782ft 0kts
02-Apr-19 15:47 34.201654 -118.357430 165 1032ft 135kts
02-Apr-19 15:48 34.167708 -118.384554 223 3799ft 249kts
02-Apr-19 15:49 34.120406 -118.469159 270 6862ft 350kts
02-Apr-19 15:50 34.175397 -118.538321 344 10831ft 260kts
02-Apr-19 15:51 34.245750 -118.501261 33 12939ft 304kts
02-Apr-19 15:52 34.312115 -118.437569 32 13325ft 307kts
02-Apr-19 15:54 34.377761 -118.374974 29 15508ft 288kts
02-Apr-19 15:55 34.451263 -118.337832 11 18316ft 321kts
02-Apr-19 15:56 34.524050 -118.270502 26 21916ft 294kts
02-Apr-19 15:57 34.581988 -118.213487 24 22960ft 279kts
02-Apr-19 15:58 34.641717 -118.153518 25 22952ft 272kts
02-Apr-19 15:59 34.675550 -118.066599 67 22938ft 304kts
02-Apr-19 16:00 34.691819 -117.968235 71 22929ft 302kts
02-Apr-19 16:01 34.698144 -117.864686 76 22923ft 308kts
02-Apr-19 16:02 34.704395 -117.760514 77 22915ft 309kts
02-Apr-19 16:03 34.708636 -117.656032 80 22914ft 311kts
02-Apr-19 16:04 34.712608 -117.551174 80 22912ft 310kts
02-Apr-19 16:05 34.729592 -117.451145 62 22911ft 299kts
02-Apr-19 16:06 34.755069 -117.354913 62 22916ft 299kts
02-Apr-19 16:07 34.780565 -117.258690 63 22910ft 299kts
02-Apr-19 16:08 34.806056 -117.162177 63 22918ft 299kts
02-Apr-19 16:09 34.831467 -117.065633 64 22904ft 300kts
02-Apr-19 16:10 34.856951 -116.968456 64 22894ft 301kts
02-Apr-19 16:11 34.882243 -116.871649 64 22907ft 300kts
02-Apr-19 16:12 34.907591 -116.774291 64 22904ft 301kts
02-Apr-19 16:13 34.943600 -116.685892 44 22917ft 287kts
02-Apr-19 16:14 34.987192 -116.608454 45 22911ft 288kts
02-Apr-19 16:15 35.032608 -116.527824 45 22896ft 288kts
02-Apr-19 16:16 35.077842 -116.447389 45 22900ft 287kts
02-Apr-19 16:17 35.126690 -116.373343 33 22303ft 269kts
02-Apr-19 16:17 35.170530 -116.318597 35 21271ft 272kts
02-Apr-19 16:19 35.232649 -116.240615 38 19761ft 276kts
02-Apr-19 16:19 35.277546 -116.184204 40 18587ft 282kts
02-Apr-19 16:20 35.333415 -116.113886 40 16848ft 289kts
02-Apr-19 16:22 35.394948 -116.036068 41 14953ft 274kts
02-Apr-19 16:22 35.441997 -115.976882 43 13300ft 289kts
02-Apr-19 16:23 35.494266 -115.910554 43 12976ft 286kts
02-Apr-19 16:25 35.555982 -115.832080 43 12955ft 265kts
02-Apr-19 16:25 35.599382 -115.776926 43 12954ft 273kts
02-Apr-19 16:26 35.652918 -115.708714 43 12911ft 279kts
02-Apr-19 16:27 35.706748 -115.639940 41 12912ft 278kts
02-Apr-19 16:28 35.764321 -115.578745 15 13009ft 271kts
02-Apr-19 16:29 35.838031 -115.571203 356 12998ft 266kts
02-Apr-19 16:30 35.911717 -115.566856 356 12998ft 257kts
02-Apr-19 16:31 35.977125 -115.537810 51 12958ft 270kts
02-Apr-19 16:32 36.006872 -115.451292 70 11894ft 266kts
02-Apr-19 16:33 36.030143 -115.368512 90 11040ft 244kts
02-Apr-19 16:34 36.024239 -115.282807 98 9404ft 266kts
02-Apr-19 16:35 36.018024 -115.195779 98 8851ft 249kts
02-Apr-19 16:36 36.011322 -115.109008 99 7888ft 244kts
02-Apr-19 16:37 36.044368 -115.048695 14 6283ft 246kts
02-Apr-19 16:38 36.109234 -115.022433 13 5005ft 239kts
02-Apr-19 16:39 36.168882 -115.019579 301 4989ft 195kts
02-Apr-19 16:40 36.184494 -115.065584 280 4980ft 121kts
02-Apr-19 16:41 36.193719 -115.103183 242 4610ft 115kts
02-Apr-19 16:42 36.163401 -115.115381 219 3611ft 139kts
02-Apr-19 16:43 36.132045 -115.137075 203 3226ft 119kts
02-Apr-19 16:44 36.104839 -115.153185 203 2298ft 90kts
02-Apr-19 16:45 36.091850 -115.160798 204 2185ft 21kts
02-Apr-19 16:46 36.089420 -115.163463 287 2185ft 17kts
02-Apr-19 16:47 36.091560 -115.164583 335 2185ft 0kts
02-Apr-19 16:48 36.091560 -115.164583 335 2185ft 0kts

Navigation Log

Ident Type
Flight plan parsing failed, navigation log unavailable